Time;durP1;ratioP1;P1;durP2;ratioP2;P2;SDS_P1;SDS_P2;PMS_P1;PMS_P2;Temp;Humidity;BMP_temperature;BMP_pressure;BME280_temperature;BME280_humidity;BME280_pressure;Samples;Min_cycle;Max_cycle;Signal;HPM_P1;HPM_P2
2023/03/26 00:01:35;;;;;;;8.63;1.60;;;6.40;46.90;;;;;;5024288;28;45941;-65
2023/03/26 00:04:01;;;;;;;3.43;1.00;;;6.30;46.90;;;;;;5024147;28;46775;-65
2023/03/26 00:06:29;;;;;;;7.60;1.20;;;6.40;46.90;;;;;;5023536;28;46429;-65
2023/03/26 00:08:56;;;;;;;3.27;1.30;;;6.40;47.00;;;;;;5024252;28;46705;-65
2023/03/26 00:11:26;;;;;;;8.67;1.33;;;6.40;46.90;;;;;;5025128;28;46772;-65
2023/03/26 00:13:55;;;;;;;6.07;1.40;;;6.40;47.10;;;;;;5023251;28;46539;-65
2023/03/26 00:16:23;;;;;;;4.10;1.17;;;6.40;48.10;;;;;;5022721;28;46608;-65
2023/03/26 00:18:50;;;;;;;3.70;1.30;;;6.50;46.80;;;;;;5023469;28;46809;-65
2023/03/26 00:21:26;;;;;;;6.53;1.50;;;6.60;46.60;;;;;;5024951;28;46468;-66
2023/03/26 00:23:54;;;;;;;6.63;1.80;;;6.60;46.60;;;;;;5023307;28;46558;-67
2023/03/26 00:26:20;;;;;;;6.40;1.57;;;6.60;47.70;;;;;;5026630;28;45982;-68
2023/03/26 00:28:49;;;;;;;2.30;1.00;;;6.60;46.50;;;;;;5023103;28;46497;-67
2023/03/26 00:31:16;;;;;;;3.30;1.20;;;6.60;46.30;;;;;;5019894;28;47026;-67
2023/03/26 00:33:42;;;;;;;4.17;1.50;;;6.60;46.30;;;;;;5022793;28;46473;-67
2023/03/26 00:36:13;;;;;;;2.87;1.33;;;6.60;46.40;;;;;;5021033;28;46142;-66
2023/03/26 00:38:39;;;;;;;2.33;1.20;;;6.50;46.50;;;;;;5022636;28;46557;-67
2023/03/26 00:41:16;;;;;;;5.50;1.70;;;6.40;46.70;;;;;;5023363;28;46545;-66
2023/03/26 00:43:48;;;;;;;4.23;1.30;;;6.30;47.00;;;;;;5023736;28;46645;-67
2023/03/26 00:46:13;;;;;;;3.10;1.00;;;6.30;47.20;;;;;;5024771;28;46484;-68
2023/03/26 00:48:41;;;;;;;8.07;1.60;;;6.20;47.20;;;;;;5023327;28;46623;-67
2023/03/26 00:51:08;;;;;;;5.83;1.33;;;6.20;47.40;;;;;;5021255;28;47601;-67
2023/03/26 00:53:33;;;;;;;6.27;1.83;;;6.20;47.40;;;;;;5028038;28;46962;-67
2023/03/26 00:55:59;;;;;;;6.50;1.50;;;6.20;47.30;;;;;;5022155;28;46548;-67
2023/03/26 00:58:28;;;;;;;3.07;1.30;;;6.30;47.20;;;;;;5025124;28;46518;-67
2023/03/26 01:01:01;;;;;;;3.53;1.13;;;6.40;46.70;;;;;;5027374;28;46949;-66
2023/03/26 01:03:29;;;;;;;3.93;1.40;;;6.60;46.20;;;;;;5021462;28;46477;-66
2023/03/26 01:06:09;;;;;;;3.27;1.20;;;6.70;45.90;;;;;;5021131;28;46482;-67
2023/03/26 01:08:39;;;;;;;5.57;1.57;;;6.70;45.90;;;;;;5020794;28;45888;-67
2023/03/26 01:11:14;;;;;;;8.40;1.27;;;6.70;46.10;;;;;;5022236;28;46969;-67
2023/03/26 01:13:59;;;;;;;5.10;1.50;;;6.50;46.20;;;;;;5020858;28;46548;-66
2023/03/26 01:16:32;;;;;;;6.67;1.73;;;6.40;46.70;;;;;;5019703;28;46654;-67
2023/03/26 01:18:59;;;;;;;6.30;1.50;;;6.30;47.00;;;;;;5021673;28;46515;-66
2023/03/26 01:21:28;;;;;;;6.37;1.50;;;6.20;47.30;;;;;;5020850;28;46594;-66
2023/03/26 01:23:58;;;;;;;6.90;1.50;;;6.10;47.80;;;;;;5020425;28;46555;-67
2023/03/26 01:26:54;;;;;;;6.83;1.90;;;6.00;48.00;;;;;;5020020;28;46417;-66
2023/03/26 01:29:28;;;;;;;7.93;1.93;;;5.90;48.30;;;;;;5020764;28;45963;-67
2023/03/26 01:32:08;;;;;;;5.63;1.27;;;5.90;48.50;;;;;;5019567;28;46200;-67
2023/03/26 01:35:11;;;;;;;5.43;1.40;;;5.80;48.30;;;;;;5019882;28;45821;-67
2023/03/26 01:38:09;;;;;;;6.10;1.80;;;5.80;48.60;;;;;;5021192;28;46696;-67
2023/03/26 01:40:48;;;;;;;6.40;1.70;;;5.80;48.70;;;;;;5021200;28;46631;-67
2023/03/26 01:43:52;;;;;;;6.50;1.33;;;5.80;48.40;;;;;;5021398;28;46716;-67
2023/03/26 01:46:19;;;;;;;7.90;1.40;;;5.80;48.90;;;;;;5017026;28;46828;-67
2023/03/26 01:48:46;;;;;;;4.60;1.53;;;5.70;48.30;;;;;;5021409;28;45921;-67
2023/03/26 01:51:24;;;;;;;5.07;1.60;;;5.80;48.20;;;;;;5022213;28;46404;-66
2023/03/26 01:53:49;;;;;;;4.83;1.60;;;5.80;48.10;;;;;;5021732;28;46438;-66
2023/03/26 01:56:34;;;;;;;10.60;2.33;;;5.80;47.80;;;;;;5020845;28;46442;-67
2023/03/26 01:59:22;;;;;;;5.97;1.67;;;5.80;47.90;;;;;;5020627;28;46549;-66
2023/03/26 02:02:10;;;;;;;3.27;1.40;;;5.80;47.70;;;;;;5021652;28;45901;-67
2023/03/26 02:04:56;;;;;;;8.00;1.80;;;5.80;47.90;;;;;;5021336;28;46722;-67
2023/03/26 02:08:08;;;;;;;4.20;1.33;;;5.80;47.90;;;;;;5020177;28;46643;-67
2023/03/26 02:10:38;;;;;;;4.37;1.47;;;5.80;48.20;;;;;;5018792;28;46136;-67
2023/03/26 02:13:04;;;;;;;9.83;1.50;;;5.90;48.10;;;;;;5024854;28;46563;-67
2023/03/26 02:15:31;;;;;;;13.03;1.90;;;5.90;48.10;;;;;;5019500;28;47847;-67
2023/03/26 02:17:58;;;;;;;4.60;1.57;;;5.90;48.10;;;;;;5020597;28;46732;-67
2023/03/26 02:20:29;;;;;;;11.70;1.60;;;5.90;48.10;;;;;;5020502;28;47448;-67
2023/03/26 02:22:55;;;;;;;5.87;1.67;;;5.90;48.00;;;;;;5019452;28;46826;-67
2023/03/26 02:25:22;;;;;;;12.27;1.93;;;5.90;48.00;;;;;;5021022;28;47007;-67
2023/03/26 02:27:50;;;;;;;4.70;1.43;;;6.00;48.00;;;;;;5020448;28;46579;-67
2023/03/26 02:30:20;;;;;;;6.70;2.10;;;6.00;47.80;;;;;;5019899;28;47470;-67
2023/03/26 02:32:46;;;;;;;9.60;2.40;;;6.00;47.90;;;;;;5020104;28;46674;-67
2023/03/26 02:35:12;;;;;;;7.20;2.60;;;6.00;47.90;;;;;;5018324;28;46405;-67
2023/03/26 02:37:38;;;;;;;7.00;2.20;;;6.00;48.00;;;;;;5017604;28;46499;-66
2023/03/26 02:40:09;;;;;;;7.27;1.60;;;6.00;48.00;;;;;;5019359;28;46612;-66
2023/03/26 02:42:35;;;;;;;10.30;1.70;;;5.90;47.90;;;;;;5020918;28;46499;-66
2023/03/26 02:45:01;;;;;;;10.43;2.30;;;5.90;47.90;;;;;;5019052;28;47127;-67
2023/03/26 02:47:27;;;;;;;7.60;1.40;;;5.90;47.90;;;;;;5019544;28;46782;-66
2023/03/26 02:49:53;;;;;;;5.80;1.60;;;5.90;48.00;;;;;;5018412;28;46639;-67
2023/03/26 02:52:18;;;;;;;3.17;1.33;;;6.00;48.00;;;;;;5020435;28;46870;-66
2023/03/26 02:54:44;;;;;;;5.03;2.00;;;6.00;47.90;;;;;;5019431;28;46951;-66
2023/03/26 02:57:10;;;;;;;3.70;1.50;;;6.00;48.00;;;;;;5019895;28;45917;-67
2023/03/26 02:59:35;;;;;;;13.53;1.67;;;6.00;47.80;;;;;;5019292;28;46615;-66
2023/03/26 03:02:01;;;;;;;7.70;1.70;;;6.00;47.70;;;;;;5019106;28;46578;-67
2023/03/26 03:04:26;;;;;;;4.43;1.20;;;6.10;47.70;;;;;;5019888;28;46120;-67
2023/03/26 03:06:56;;;;;;;6.47;1.80;;;6.10;47.60;;;;;;5019425;28;46150;-67
2023/03/26 03:09:23;;;;;;;6.63;1.37;;;6.10;47.60;;;;;;5020258;28;46714;-67
2023/03/26 03:11:50;;;;;;;8.77;1.70;;;6.10;47.60;;;;;;5018793;28;46418;-66
2023/03/26 03:14:16;;;;;;;4.70;1.43;;;6.10;47.50;;;;;;5016551;28;46493;-67
2023/03/26 03:16:42;;;;;;;4.70;1.70;;;6.10;47.70;;;;;;5018657;28;46421;-67
2023/03/26 03:19:07;;;;;;;7.13;2.10;;;6.10;47.70;;;;;;5020733;28;46445;-67
2023/03/26 03:21:33;;;;;;;6.27;1.60;;;6.10;48.00;;;;;;5021513;28;46721;-67
2023/03/26 03:23:59;;;;;;;9.53;1.60;;;6.10;48.20;;;;;;5020907;28;46504;-67
2023/03/26 03:26:28;;;;;;;12.70;1.83;;;6.10;48.20;;;;;;5019781;28;46727;-67
2023/03/26 03:28:56;;;;;;;6.50;1.43;;;6.10;49.30;;;;;;5019287;28;45896;-67
2023/03/26 03:31:23;;;;;;;5.53;2.00;;;6.20;48.10;;;;;;5019769;28;46548;-66
2023/03/26 03:33:50;;;;;;;12.53;1.93;;;6.20;48.00;;;;;;5019290;28;46437;-67
2023/03/26 03:36:18;;;;;;;7.90;1.57;;;6.30;47.70;;;;;;5017835;28;46774;-66
2023/03/26 03:38:44;;;;;;;5.53;1.60;;;6.40;47.70;;;;;;5019509;28;46009;-67
2023/03/26 03:41:10;;;;;;;4.17;1.50;;;6.40;47.80;;;;;;5020333;28;46571;-67
2023/03/26 03:43:36;;;;;;;8.17;1.90;;;6.50;47.50;;;;;;5019865;28;46426;-66
2023/03/26 03:46:02;;;;;;;11.27;1.60;;;6.50;47.40;;;;;;5016181;28;46639;-67
2023/03/26 03:48:29;;;;;;;3.47;1.60;;;6.60;47.60;;;;;;5020210;28;46547;-65
2023/03/26 03:50:56;;;;;;;6.23;1.50;;;6.60;47.50;;;;;;5007729;28;46426;-64
2023/03/26 03:53:24;;;;;;;6.00;2.20;;;6.60;47.50;;;;;;5019961;28;46990;-67
2023/03/26 03:55:54;;;;;;;4.23;1.57;;;6.60;47.50;;;;;;5018946;28;46851;-67
2023/03/26 03:58:22;;;;;;;11.50;1.53;;;6.60;47.50;;;;;;5017553;28;46463;-66
2023/03/26 04:00:49;;;;;;;5.67;1.50;;;6.70;47.60;;;;;;5017732;28;46553;-67
2023/03/26 04:03:15;;;;;;;7.93;1.47;;;6.70;47.50;;;;;;5017551;28;48036;-67
2023/03/26 04:05:42;;;;;;;7.40;1.77;;;6.80;47.60;;;;;;5019126;28;46557;-67
2023/03/26 04:08:08;;;;;;;10.13;3.80;;;6.70;47.70;;;;;;5019597;28;46471;-67
2023/03/26 04:10:33;;;;;;;6.40;1.63;;;6.80;47.80;;;;;;5017267;28;46468;-67
2023/03/26 04:12:59;;;;;;;11.27;1.83;;;6.80;47.80;;;;;;5019614;28;46676;-67
2023/03/26 04:15:25;;;;;;;9.77;1.70;;;6.80;47.80;;;;;;5017570;28;46592;-67
2023/03/26 04:17:51;;;;;;;6.67;1.33;;;6.80;47.70;;;;;;5020221;28;46504;-67
2023/03/26 04:20:18;;;;;;;8.37;1.60;;;6.90;47.70;;;;;;5037039;28;46447;-67
2023/03/26 04:22:44;;;;;;;3.00;1.63;;;7.00;47.50;;;;;;5024500;28;46656;-67
2023/03/26 04:25:11;;;;;;;9.37;2.23;;;7.00;47.50;;;;;;5023240;28;46659;-67
2023/03/26 04:27:40;;;;;;;7.37;1.40;;;7.00;47.40;;;;;;5020840;28;46523;-66
2023/03/26 04:30:07;;;;;;;11.50;1.80;;;7.10;47.30;;;;;;5021503;28;46481;-67
2023/03/26 04:32:33;;;;;;;7.13;1.93;;;7.10;47.20;;;;;;5022481;28;46986;-67
2023/03/26 04:35:02;;;;;;;6.73;2.13;;;7.10;47.10;;;;;;5020584;28;46609;-67
2023/03/26 04:37:33;;;;;;;6.00;1.80;;;7.20;47.10;;;;;;5022044;28;46837;-67
2023/03/26 04:40:09;;;;;;;8.57;1.60;;;7.30;47.00;;;;;;5023083;28;46726;-67
2023/03/26 04:42:36;;;;;;;7.43;1.40;;;7.30;46.80;;;;;;5022578;28;45980;-68
2023/03/26 04:45:04;;;;;;;10.50;1.80;;;7.40;46.60;;;;;;5020482;28;46770;-67
2023/03/26 04:47:30;;;;;;;4.63;1.30;;;7.40;46.40;;;;;;5021700;28;45780;-67
2023/03/26 04:49:56;;;;;;;5.90;1.43;;;7.50;46.10;;;;;;5022255;28;46608;-66
2023/03/26 04:52:21;;;;;;;9.40;1.60;;;7.60;46.00;;;;;;5020542;28;48228;-67
2023/03/26 04:54:47;;;;;;;3.73;1.20;;;7.60;45.80;;;;;;5018675;28;46556;-68
2023/03/26 04:57:38;;;;;;;3.90;1.40;;;7.70;45.90;;;;;;5022242;28;46489;-68
2023/03/26 05:00:13;;;;;;;5.80;1.67;;;7.70;45.60;;;;;;5020707;28;47077;-66
2023/03/26 05:02:40;;;;;;;9.77;2.00;;;7.70;45.70;;;;;;5022030;28;46923;-67
2023/03/26 05:05:07;;;;;;;6.33;1.60;;;7.70;45.80;;;;;;5020976;28;46528;-67
2023/03/26 05:07:32;;;;;;;4.47;1.33;;;7.70;45.80;;;;;;5020415;28;46286;-66
2023/03/26 05:10:00;;;;;;;6.13;1.80;;;7.70;45.80;;;;;;5021221;28;46491;-67
2023/03/26 05:12:26;;;;;;;4.77;1.50;;;7.70;45.90;;;;;;5022118;28;46483;-66
2023/03/26 05:14:52;;;;;;;5.30;1.60;;;7.70;46.00;;;;;;5020922;28;46450;-67
2023/03/26 05:17:20;;;;;;;7.50;1.30;;;7.80;46.00;;;;;;5020375;28;47062;-67
2023/03/26 05:19:46;;;;;;;8.00;1.60;;;7.80;45.90;;;;;;5021720;28;46707;-67
2023/03/26 05:22:12;;;;;;;15.70;2.37;;;7.90;45.80;;;;;;5020907;28;46460;-67
2023/03/26 05:24:38;;;;;;;6.47;2.07;;;7.90;45.60;;;;;;5017521;28;46587;-68
2023/03/26 05:27:03;;;;;;;9.03;1.60;;;8.00;45.80;;;;;;5021073;28;46576;-67
2023/03/26 05:29:29;;;;;;;6.87;1.93;;;8.00;45.60;;;;;;5018212;28;46571;-67
2023/03/26 05:31:55;;;;;;;9.83;3.53;;;8.00;45.60;;;;;;5019833;28;49485;-67
2023/03/26 05:34:23;;;;;;;11.60;4.70;;;8.10;45.60;;;;;;5021896;28;46754;-67
2023/03/26 05:36:49;;;;;;;10.87;4.23;;;8.10;45.70;;;;;;5024081;28;46798;-68
2023/03/26 05:39:15;;;;;;;8.40;2.30;;;8.10;45.40;;;;;;5021241;28;46487;-67
2023/03/26 05:41:40;;;;;;;5.73;1.80;;;8.20;45.20;;;;;;5021013;28;48314;-67
2023/03/26 05:44:06;;;;;;;7.70;2.13;;;8.30;45.00;;;;;;5019663;28;46460;-67
2023/03/26 05:46:32;;;;;;;6.70;2.40;;;8.40;44.70;;;;;;5019136;28;46688;-67
2023/03/26 05:48:57;;;;;;;6.20;1.33;;;8.40;44.70;;;;;;5020869;28;46752;-67
2023/03/26 05:51:23;;;;;;;9.37;2.10;;;8.40;44.80;;;;;;5021265;28;46905;-67
2023/03/26 05:53:48;;;;;;;10.43;1.77;;;8.40;45.00;;;;;;5020534;28;46954;-67
2023/03/26 05:56:14;;;;;;;10.70;2.93;;;8.40;45.00;;;;;;5022006;28;46596;-67
2023/03/26 05:58:40;;;;;;;6.53;1.93;;;8.50;46.40;;;;;;5020773;28;46593;-67
2023/03/26 06:01:15;;;;;;;19.83;8.53;;;8.50;45.10;;;;;;5020391;28;46673;-67
2023/03/26 06:03:41;;;;;;;6.30;2.50;;;8.60;45.00;;;;;;5020352;28;46600;-67
2023/03/26 06:06:09;;;;;;;12.10;4.20;;;8.70;44.90;;;;;;5019808;28;46639;-67
2023/03/26 06:08:34;;;;;;;14.47;4.57;;;8.80;44.80;;;;;;5019829;28;46406;-68
2023/03/26 06:11:03;;;;;;;11.23;2.57;;;8.70;44.70;;;;;;5021325;28;46725;-68
2023/03/26 06:13:28;;;;;;;16.03;4.23;;;8.70;44.70;;;;;;5019683;28;46602;-68
2023/03/26 06:15:54;;;;;;;11.47;3.00;;;8.80;44.80;;;;;;5009678;28;45949;-66
2023/03/26 06:18:21;;;;;;;6.23;2.40;;;8.80;44.60;;;;;;5020027;28;46585;-67
2023/03/26 06:20:48;;;;;;;12.73;2.60;;;8.80;44.60;;;;;;5020102;28;46485;-66
2023/03/26 06:23:22;;;;;;;6.60;1.63;;;8.90;44.30;;;;;;5019973;28;46786;-65
2023/03/26 06:25:51;;;;;;;10.67;2.53;;;8.90;45.50;;;;;;5018678;28;45954;-67
2023/03/26 06:28:16;;;;;;;6.77;2.00;;;8.80;44.50;;;;;;5020326;28;46895;-67
2023/03/26 06:30:42;;;;;;;6.33;2.60;;;8.80;44.80;;;;;;5017671;28;46999;-66
2023/03/26 06:33:11;;;;;;;4.80;2.10;;;8.80;44.80;;;;;;5018403;28;46608;-66
2023/03/26 06:35:40;;;;;;;5.03;1.70;;;8.80;44.80;;;;;;5020070;28;46563;-65
2023/03/26 06:38:06;;;;;;;9.63;2.37;;;8.80;44.70;;;;;;5020202;28;46650;-67
2023/03/26 06:40:32;;;;;;;7.17;3.07;;;8.90;44.60;;;;;;5020769;28;45983;-67
2023/03/26 06:42:59;;;;;;;8.33;2.17;;;8.90;44.50;;;;;;5020173;28;45896;-67
2023/03/26 06:45:30;;;;;;;10.23;3.10;;;9.00;44.40;;;;;;5020924;28;46648;-67
2023/03/26 06:47:58;;;;;;;10.77;3.23;;;9.10;44.40;;;;;;5022536;28;46445;-67
2023/03/26 06:50:25;;;;;;;5.57;1.97;;;9.20;44.10;;;;;;5018906;28;46794;-67
2023/03/26 06:52:55;;;;;;;7.87;2.60;;;9.20;43.80;;;;;;5020879;28;46426;-66
2023/03/26 06:55:21;;;;;;;6.10;2.27;;;9.30;43.80;;;;;;5019392;28;46489;-67
2023/03/26 06:57:50;;;;;;;8.50;2.37;;;9.30;43.80;;;;;;5024519;28;46457;-67
2023/03/26 07:00:16;;;;;;;5.37;2.40;;;9.30;45.10;;;;;;5020859;28;46136;-67
2023/03/26 07:02:42;;;;;;;7.23;2.00;;;9.30;43.70;;;;;;5017828;28;46989;-67
2023/03/26 07:05:07;;;;;;;9.83;2.93;;;9.30;44.00;;;;;;5019094;28;46542;-67
2023/03/26 07:07:33;;;;;;;8.83;2.40;;;9.30;44.10;;;;;;5020490;28;46438;-67
2023/03/26 07:09:59;;;;;;;8.57;2.13;;;9.30;44.10;;;;;;5020850;28;47021;-67
2023/03/26 07:12:25;;;;;;;12.90;2.50;;;9.30;44.20;;;;;;5020951;28;46866;-67
2023/03/26 07:14:51;;;;;;;16.37;5.40;;;9.30;44.50;;;;;;5019935;28;45911;-67
2023/03/26 07:17:17;;;;;;;16.37;6.10;;;9.30;44.40;;;;;;5019706;28;46450;-67
2023/03/26 07:19:43;;;;;;;13.83;4.80;;;9.30;44.60;;;;;;5020092;28;46486;-67
2023/03/26 07:22:35;;;;;;;12.60;3.80;;;9.30;44.80;;;;;;5018961;28;46273;-67
2023/03/26 07:25:01;;;;;;;10.60;3.60;;;9.30;45.00;;;;;;5018665;28;46557;-67
2023/03/26 07:27:30;;;;;;;8.97;3.30;;;9.20;45.50;;;;;;5019882;28;46795;-67
2023/03/26 07:30:06;;;;;;;11.00;3.10;;;9.10;45.80;;;;;;5020529;28;46429;-67
2023/03/26 07:32:42;;;;;;;7.13;3.47;;;9.10;45.60;;;;;;5019222;28;46529;-67
2023/03/26 07:35:25;;;;;;;11.43;3.17;;;9.20;45.40;;;;;;5020163;28;46572;-67
2023/03/26 07:38:12;;;;;;;10.30;2.70;;;9.20;45.10;;;;;;5020086;28;45887;-67
2023/03/26 07:41:04;;;;;;;6.60;2.40;;;9.30;45.00;;;;;;5020410;28;47493;-67
2023/03/26 07:43:55;;;;;;;6.97;2.00;;;9.30;45.20;;;;;;5021004;28;46643;-66
2023/03/26 07:46:28;;;;;;;8.70;1.93;;;9.30;45.40;;;;;;5020001;28;46534;-67
2023/03/26 07:48:57;;;;;;;8.60;2.17;;;9.20;45.50;;;;;;5022681;28;46491;-67
2023/03/26 07:51:23;;;;;;;8.97;2.13;;;9.20;45.50;;;;;;5024940;28;46695;-68
2023/03/26 07:53:48;;;;;;;6.07;2.20;;;9.20;45.70;;;;;;5025346;28;46539;-67
2023/03/26 07:56:16;;;;;;;5.73;1.77;;;9.20;46.00;;;;;;5018770;28;45879;-68
2023/03/26 07:59:03;;;;;;;14.47;3.30;;;9.20;46.10;;;;;;5019583;28;46595;-67
2023/03/26 08:01:41;;;;;;;13.37;4.63;;;9.20;45.90;;;;;;5020036;28;46896;-67
2023/03/26 08:04:21;;;;;;;12.60;3.77;;;9.20;45.90;;;;;;5022351;28;46829;-68
2023/03/26 08:07:19;;;;;;;70.03;37.27;;;9.10;46.20;;;;;;5022224;28;46561;-68
2023/03/26 08:10:11;;;;;;;16.73;6.30;;;9.10;46.60;;;;;;5024101;28;45890;-68
2023/03/26 08:12:54;;;;;;;14.03;3.90;;;9.10;46.60;;;;;;5022760;28;46698;-68
2023/03/26 08:15:38;;;;;;;5.97;2.73;;;9.20;46.30;;;;;;5022596;28;46506;-67
2023/03/26 08:18:40;;;;;;;6.43;1.83;;;9.30;46.10;;;;;;5024089;28;46583;-67
2023/03/26 08:21:36;;;;;;;9.10;1.60;;;9.40;45.90;;;;;;5016949;28;45839;-67
2023/03/26 08:24:33;;;;;;;9.60;2.70;;;9.50;46.00;;;;;;5024647;28;46501;-67
2023/03/26 08:27:07;;;;;;;7.67;2.57;;;9.60;45.80;;;;;;5022720;28;46438;-67
2023/03/26 08:29:33;;;;;;;7.87;2.40;;;9.60;45.60;;;;;;5023534;28;46485;-67
2023/03/26 08:32:00;;;;;;;4.23;1.83;;;9.50;46.00;;;;;;5023092;28;46521;-67
2023/03/26 08:34:26;;;;;;;11.90;2.60;;;9.50;46.10;;;;;;5022504;28;46528;-67
2023/03/26 08:36:51;;;;;;;6.00;1.97;;;9.40;46.20;;;;;;5017476;28;46482;-67
2023/03/26 08:39:18;;;;;;;7.20;2.07;;;9.40;46.20;;;;;;5018530;28;46446;-66
2023/03/26 08:41:59;;;;;;;5.00;1.90;;;9.30;46.80;;;;;;5021666;28;46609;-66
2023/03/26 08:45:06;;;;;;;9.83;2.00;;;9.30;46.90;;;;;;5022990;28;46610;-66
2023/03/26 08:48:02;;;;;;;3.47;1.53;;;9.30;47.20;;;;;;5025170;28;46492;-66
2023/03/26 08:51:00;;;;;;;7.17;1.90;;;9.40;47.10;;;;;;5023178;28;47604;-66
2023/03/26 08:53:47;;;;;;;12.03;2.10;;;9.40;47.20;;;;;;5024479;28;46489;-66
2023/03/26 08:56:16;;;;;;;8.90;2.40;;;9.50;47.20;;;;;;5022983;28;46203;-66
2023/03/26 08:59:32;;;;;;;5.20;2.10;;;9.50;47.30;;;;;;5023633;28;46485;-67
2023/03/26 09:02:33;;;;;;;10.87;2.20;;;9.50;47.40;;;;;;5022999;28;46711;-66
2023/03/26 09:05:45;;;;;;;6.87;2.70;;;9.50;47.80;;;;;;5010089;28;46582;-67
2023/03/26 09:08:35;;;;;;;6.30;2.10;;;9.50;47.70;;;;;;5021433;28;47046;-67
2023/03/26 09:11:20;;;;;;;14.37;3.30;;;9.50;47.80;;;;;;5022792;28;46463;-67
2023/03/26 09:14:04;;;;;;;6.03;3.00;;;9.50;47.70;;;;;;5020477;28;46585;-67
2023/03/26 09:17:01;;;;;;;7.43;2.80;;;9.60;48.20;;;;;;5021911;28;46974;-67
2023/03/26 09:19:57;;;;;;;7.47;1.97;;;9.50;48.20;;;;;;5021440;28;46579;-67
2023/03/26 09:23:00;;;;;;;11.53;2.10;;;9.60;48.40;;;;;;5022750;28;46440;-68
2023/03/26 09:25:55;;;;;;;7.40;2.00;;;9.60;48.50;;;;;;5022615;28;46516;-66
2023/03/26 09:28:33;;;;;;;8.20;2.27;;;9.60;48.90;;;;;;5020902;28;46771;-67
2023/03/26 09:31:43;;;;;;;5.50;2.00;;;9.60;49.10;;;;;;5022436;28;46204;-65
2023/03/26 09:34:29;;;;;;;8.90;2.30;;;9.50;49.10;;;;;;5009774;28;46672;-66
2023/03/26 09:37:17;;;;;;;9.83;1.90;;;9.50;49.40;;;;;;5020628;28;46460;-66
2023/03/26 09:40:17;;;;;;;9.20;2.80;;;9.50;49.70;;;;;;5021993;28;46505;-66
2023/03/26 09:42:46;;;;;;;5.30;1.97;;;9.50;49.90;;;;;;5020864;28;47168;-68
2023/03/26 09:45:45;;;;;;;9.23;2.70;;;9.60;49.50;;;;;;5021132;28;46642;-66
2023/03/26 09:48:29;;;;;;;15.30;3.67;;;9.60;49.40;;;;;;5018983;28;46472;-67
2023/03/26 09:50:55;;;;;;;12.20;3.70;;;9.70;49.50;;;;;;5021678;28;46580;-64
2023/03/26 09:53:26;;;;;;;9.93;4.30;;;9.70;49.40;;;;;;5021156;28;47114;-66
2023/03/26 09:56:14;;;;;;;12.60;3.73;;;10.00;47.80;;;;;;5018596;28;46561;-66
2023/03/26 09:58:58;;;;;;;5.30;3.40;;;10.20;47.30;;;;;;5019566;28;46440;-65
2023/03/26 10:01:53;;;;;;;11.07;3.57;;;10.40;46.80;;;;;;5020674;28;46465;-66
2023/03/26 10:04:59;;;;;;;5.53;2.90;;;10.60;46.60;;;;;;5020799;28;46668;-66
2023/03/26 10:07:51;;;;;;;11.87;3.67;;;10.70;46.60;;;;;;5020446;28;46555;-65
2023/03/26 10:10:32;;;;;;;9.67;3.83;;;10.50;46.90;;;;;;5019232;28;46459;-66
2023/03/26 10:13:22;;;;;;;5.20;2.90;;;10.40;47.30;;;;;;5020321;28;46244;-66
2023/03/26 10:16:09;;;;;;;5.63;2.97;;;10.30;47.90;;;;;;5020625;28;46724;-67
2023/03/26 10:18:50;;;;;;;6.27;2.60;;;10.20;48.00;;;;;;5019131;28;46522;-65
2023/03/26 10:21:40;;;;;;;6.07;2.30;;;10.10;48.30;;;;;;5019317;28;46432;-65
2023/03/26 10:24:14;;;;;;;4.67;1.50;;;9.90;49.70;;;;;;5020140;28;46563;-66
2023/03/26 10:26:50;;;;;;;4.20;2.20;;;9.70;50.70;;;;;;5018739;28;47975;-66
2023/03/26 10:29:43;;;;;;;3.80;1.73;;;9.50;52.10;;;;;;5020612;28;46556;-67
2023/03/26 10:33:06;;;;;;;9.00;1.83;;;9.50;52.20;;;;;;5020205;28;46504;-66
2023/03/26 10:35:55;;;;;;;4.97;1.80;;;9.60;52.30;;;;;;5003877;28;46545;-66
2023/03/26 10:38:45;;;;;;;4.83;2.13;;;9.80;52.40;;;;;;5005695;28;46267;-66
2023/03/26 10:41:19;;;;;;;7.57;3.03;;;10.10;50.80;;;;;;5016710;28;46509;-66
2023/03/26 10:43:55;;;;;;;5.37;1.40;;;10.30;50.00;;;;;;5019935;28;46063;-67
2023/03/26 10:46:40;;;;;;;2.10;1.20;;;10.40;49.30;;;;;;5020510;28;46642;-67
2023/03/26 10:49:43;;;;;;;2.77;1.10;;;10.30;49.40;;;;;;5020012;28;46670;-67
2023/03/26 10:52:14;;;;;;;2.13;1.30;;;10.10;49.60;;;;;;5022602;28;46548;-66
2023/03/26 10:55:21;;;;;;;2.87;1.40;;;10.10;49.20;;;;;;5021451;28;46475;-66
2023/03/26 10:58:04;;;;;;;3.40;2.23;;;10.30;48.60;;;;;;5020665;28;46471;-66
2023/03/26 11:00:38;;;;;;;2.40;1.57;;;10.40;48.30;;;;;;5022780;28;46674;-66
2023/03/26 11:03:11;;;;;;;2.20;1.37;;;10.50;48.30;;;;;;5022756;28;46492;-66
2023/03/26 11:06:17;;;;;;;6.80;3.33;;;10.70;48.10;;;;;;5024655;28;45946;-67
2023/03/26 11:09:00;;;;;;;9.03;3.13;;;10.90;47.50;;;;;;5019989;28;46646;-67
2023/03/26 11:11:35;;;;;;;2.57;1.40;;;11.10;48.00;;;;;;5019552;28;46966;-66
2023/03/26 11:14:24;;;;;;;2.70;2.03;;;11.30;46.40;;;;;;5020068;28;45978;-67
2023/03/26 11:17:35;;;;;;;4.30;1.60;;;11.40;46.10;;;;;;5022906;28;45895;-66
2023/03/26 11:20:18;;;;;;;3.20;1.00;;;11.40;46.30;;;;;;5020333;28;46591;-66
2023/03/26 11:23:25;;;;;;;1.40;0.80;;;11.20;46.60;;;;;;5019188;28;46775;-67
2023/03/26 11:26:21;;;;;;;3.03;1.00;;;11.20;46.20;;;;;;5017448;28;46522;-65
2023/03/26 11:29:08;;;;;;;1.67;0.90;;;11.20;46.20;;;;;;5019802;28;46454;-64
2023/03/26 11:31:57;;;;;;;1.90;1.00;;;11.30;46.10;;;;;;5019407;28;46434;-67
2023/03/26 11:34:32;;;;;;;3.23;1.90;;;11.40;45.50;;;;;;5017706;28;46703;-66
2023/03/26 11:37:03;;;;;;;4.10;1.10;;;11.80;45.00;;;;;;5020378;28;46524;-67
2023/03/26 11:39:49;;;;;;;8.80;5.30;;;12.00;44.40;;;;;;5022245;28;46665;-67
2023/03/26 11:42:18;;;;;;;3.30;1.63;;;12.30;44.00;;;;;;5022687;28;46540;-66
2023/03/26 11:44:56;;;;;;;3.37;1.30;;;12.50;43.60;;;;;;5020591;28;46574;-68
2023/03/26 11:47:43;;;;;;;3.53;1.20;;;12.50;43.30;;;;;;5022180;28;46549;-65
2023/03/26 11:50:21;;;;;;;3.00;1.67;;;12.60;43.60;;;;;;5022057;28;46589;-68
2023/03/26 11:52:47;;;;;;;2.70;1.23;;;12.50;43.60;;;;;;5022092;28;45970;-68
2023/03/26 11:55:12;;;;;;;5.53;2.00;;;12.50;43.50;;;;;;5021734;28;47031;-67
2023/03/26 11:57:44;;;;;;;2.40;1.07;;;12.50;43.40;;;;;;5020646;28;46547;-65
2023/03/26 12:00:16;;;;;;;2.33;1.13;;;12.70;43.10;;;;;;5022514;28;46539;-65
2023/03/26 12:02:44;;;;;;;1.53;0.77;;;12.70;43.70;;;;;;5022020;28;46545;-65
2023/03/26 12:05:25;;;;;;;1.63;0.80;;;12.80;42.50;;;;;;5022268;28;46144;-68
2023/03/26 12:07:59;;;;;;;1.80;0.80;;;12.80;42.20;;;;;;5021889;28;46645;-67
2023/03/26 12:10:38;;;;;;;4.90;1.13;;;13.00;41.20;;;;;;5021858;28;46750;-65
2023/03/26 12:13:20;;;;;;;2.20;0.77;;;13.00;41.10;;;;;;5022813;28;46577;-67
2023/03/26 12:15:46;;;;;;;7.00;1.13;;;13.10;41.20;;;;;;5021028;28;48323;-66
2023/03/26 12:18:26;;;;;;;2.93;1.00;;;13.20;40.50;;;;;;5020672;28;46446;-67
2023/03/26 12:21:21;;;;;;;4.73;1.30;;;13.30;39.90;;;;;;5021660;28;46779;-67
2023/03/26 12:23:50;;;;;;;4.20;1.20;;;13.30;39.80;;;;;;5021348;28;46784;-67
2023/03/26 12:26:29;;;;;;;3.80;1.17;;;13.20;39.50;;;;;;5020345;28;46782;-66
2023/03/26 12:28:54;;;;;;;2.73;1.20;;;13.20;39.60;;;;;;5021147;28;46556;-66
2023/03/26 12:31:20;;;;;;;4.50;1.60;;;13.10;39.40;;;;;;5029124;28;46588;-67
2023/03/26 12:34:15;;;;;;;3.27;1.33;;;13.20;38.80;;;;;;5027101;28;46738;-66
2023/03/26 12:36:48;;;;;;;3.13;1.30;;;13.00;37.80;;;;;;5022658;28;46444;-66
2023/03/26 12:39:31;;;;;;;5.37;1.37;;;12.90;38.10;;;;;;5021491;28;45935;-65
2023/03/26 12:41:58;;;;;;;4.80;1.60;;;12.80;38.00;;;;;;5021365;28;46555;-66
2023/03/26 12:44:29;;;;;;;3.43;1.37;;;12.60;38.20;;;;;;5021870;28;46611;-67
2023/03/26 12:47:14;;;;;;;2.10;1.07;;;12.40;38.40;;;;;;5021217;28;46424;-67
2023/03/26 12:49:40;;;;;;;3.00;1.60;;;12.30;38.60;;;;;;5022221;28;46526;-65
2023/03/26 12:52:37;;;;;;;5.80;1.70;;;12.00;38.80;;;;;;5021044;28;45989;-67
2023/03/26 12:55:21;;;;;;;4.83;1.27;;;11.80;39.20;;;;;;5020956;28;46506;-68
2023/03/26 12:58:17;;;;;;;6.30;1.33;;;11.70;40.00;;;;;;5020763;28;47349;-63
2023/03/26 13:01:01;;;;;;;3.53;1.40;;;11.60;39.90;;;;;;5021507;28;46570;-64
2023/03/26 13:03:26;;;;;;;4.00;1.40;;;11.60;39.90;;;;;;5020979;28;47564;-63
2023/03/26 13:06:14;;;;;;;2.57;1.30;;;11.60;39.90;;;;;;5020346;28;46480;-62
2023/03/26 13:09:03;;;;;;;5.10;1.90;;;11.60;39.90;;;;;;5021406;28;47126;-65
2023/03/26 13:12:03;;;;;;;3.07;1.33;;;11.70;39.50;;;;;;5021509;28;46493;-65
2023/03/26 13:14:43;;;;;;;4.53;1.40;;;11.80;39.40;;;;;;5020840;28;46593;-66
2023/03/26 13:17:33;;;;;;;6.80;1.53;;;11.80;39.20;;;;;;5022422;28;46676;-66
2023/03/26 13:20:11;;;;;;;3.73;1.50;;;11.70;39.50;;;;;;5023533;28;46772;-69
2023/03/26 13:22:42;;;;;;;3.40;1.30;;;11.70;40.00;;;;;;5029004;28;46525;-67
2023/03/26 13:25:25;;;;;;;7.97;1.13;;;11.60;39.90;;;;;;5034470;28;45841;-66
2023/03/26 13:28:12;;;;;;;5.60;1.50;;;11.50;39.80;;;;;;5027939;28;45941;-66
2023/03/26 13:31:04;;;;;;;2.70;1.47;;;11.20;40.10;;;;;;5027004;28;47170;-64
2023/03/26 13:33:51;;;;;;;5.50;0.80;;;10.90;41.50;;;;;;5031680;28;46256;-66
2023/03/26 13:36:37;;;;;;;2.27;0.80;;;10.00;39.40;;;;;;5030334;28;46525;-64